createdAt,value
2023-05-14T00:01:13.613Z,6.83
2023-05-14T00:03:41.320Z,6.78
2023-05-14T00:06:10.908Z,6.50
2023-05-14T00:08:37.835Z,7.50
2023-05-14T00:11:05.213Z,10.55
2023-05-14T00:13:32.579Z,8.80
2023-05-14T00:15:59.867Z,8.20
2023-05-14T00:18:26.833Z,8.68
2023-05-14T00:20:55.107Z,8.38
2023-05-14T00:23:22.843Z,8.57
2023-05-14T00:25:50.731Z,8.73
2023-05-14T00:28:17.805Z,7.57
2023-05-14T00:30:45.364Z,8.65
2023-05-14T00:33:12.472Z,10.07
2023-05-14T00:35:39.772Z,10.75
2023-05-14T00:38:06.685Z,9.37
2023-05-14T00:40:34.377Z,8.27
2023-05-14T00:43:01.451Z,8.00
2023-05-14T00:45:29.376Z,8.73
2023-05-14T00:47:56.347Z,9.77
2023-05-14T00:50:24.090Z,8.40
2023-05-14T00:52:51.281Z,10.05
2023-05-14T00:55:19.457Z,11.02
2023-05-14T00:57:46.784Z,8.57
2023-05-14T01:00:14.376Z,8.60
2023-05-14T01:02:41.329Z,11.43
2023-05-14T01:05:09.375Z,10.70
2023-05-14T01:07:42.392Z,12.15
2023-05-14T01:10:16.116Z,12.18
2023-05-14T01:12:52.329Z,13.07
2023-05-14T01:15:26.682Z,11.83
2023-05-14T01:18:00.309Z,11.43
2023-05-14T01:20:27.585Z,10.80
2023-05-14T01:22:54.475Z,11.82
2023-05-14T01:25:21.728Z,12.25
2023-05-14T01:27:57.725Z,11.43
2023-05-14T01:30:25.248Z,11.20
2023-05-14T01:32:56.574Z,9.20
2023-05-14T01:35:29.598Z,10.43
2023-05-14T01:37:58.694Z,10.82
2023-05-14T01:40:27.313Z,9.77
2023-05-14T01:42:55.114Z,9.23
2023-05-14T01:45:23.790Z,7.95
2023-05-14T01:47:51.873Z,8.75
2023-05-14T01:50:19.265Z,9.45
2023-05-14T01:52:46.938Z,7.57
2023-05-14T01:55:15.521Z,8.13
2023-05-14T01:57:42.377Z,7.40
2023-05-14T02:00:10.053Z,6.95
2023-05-14T02:02:43.174Z,6.50
2023-05-14T02:05:12.884Z,6.67
2023-05-14T02:07:40.059Z,6.43
2023-05-14T02:10:08.160Z,6.88
2023-05-14T02:12:35.219Z,6.53
2023-05-14T02:15:03.964Z,7.28
2023-05-14T02:17:31.278Z,7.20
2023-05-14T02:19:58.613Z,7.18
2023-05-14T02:22:25.885Z,6.53
2023-05-14T02:24:53.241Z,6.47
2023-05-14T02:27:20.270Z,6.78
2023-05-14T02:29:48.534Z,7.53
2023-05-14T02:32:15.515Z,6.88
2023-05-14T02:34:42.781Z,7.68
2023-05-14T02:37:09.701Z,6.78
2023-05-14T02:39:37.689Z,5.78
2023-05-14T02:42:04.836Z,6.10
2023-05-14T02:44:32.555Z,5.70
2023-05-14T02:46:59.641Z,5.45
2023-05-14T02:49:27.039Z,5.90
2023-05-14T02:51:56.792Z,5.32
2023-05-14T02:54:24.102Z,6.07
2023-05-14T02:56:51.166Z,6.20
2023-05-14T02:59:18.620Z,6.38
2023-05-14T03:01:46.040Z,6.30
2023-05-14T03:04:13.841Z,8.73
2023-05-14T03:06:40.734Z,9.13
2023-05-14T03:09:08.061Z,8.75
2023-05-14T03:11:35.141Z,8.40
2023-05-14T03:14:02.435Z,8.75
2023-05-14T03:16:29.785Z,9.35
2023-05-14T03:18:57.084Z,7.80
2023-05-14T03:21:24.112Z,6.60
2023-05-14T03:23:52.883Z,6.82
2023-05-14T03:26:19.796Z,8.88
2023-05-14T03:28:47.051Z,7.20
2023-05-14T03:31:14.249Z,6.77
2023-05-14T03:33:41.610Z,6.57
2023-05-14T03:36:08.767Z,7.72
2023-05-14T03:38:36.049Z,6.15
2023-05-14T03:41:02.937Z,8.05
2023-05-14T03:43:30.167Z,7.67
2023-05-14T03:45:57.141Z,6.80
2023-05-14T03:48:24.610Z,7.03
2023-05-14T03:50:51.851Z,6.55
2023-05-14T03:53:19.099Z,6.25
2023-05-14T03:55:46.741Z,5.93
2023-05-14T03:58:14.630Z,6.18
2023-05-14T04:00:42.608Z,5.93
2023-05-14T04:03:12.119Z,6.20
2023-05-14T04:05:39.132Z,6.03
2023-05-14T04:08:06.915Z,5.63
2023-05-14T04:10:33.817Z,6.20
2023-05-14T04:13:01.201Z,6.18
2023-05-14T04:15:32.380Z,8.63
2023-05-14T04:17:59.699Z,8.23
2023-05-14T04:20:27.869Z,7.10
2023-05-14T04:22:55.314Z,6.93
2023-05-14T04:25:22.282Z,9.13
2023-05-14T04:27:49.641Z,9.02
2023-05-14T04:30:16.609Z,7.57
2023-05-14T04:32:44.632Z,8.07
2023-05-14T04:35:12.554Z,7.65
2023-05-14T04:37:40.656Z,7.85
2023-05-14T04:40:11.417Z,7.30
2023-05-14T04:42:39.561Z,7.30
2023-05-14T04:45:07.193Z,7.87
2023-05-14T04:47:35.152Z,8.32
2023-05-14T04:50:02.906Z,7.07
2023-05-14T04:52:30.221Z,7.20
2023-05-14T04:54:57.266Z,7.20
2023-05-14T04:57:24.446Z,6.77
2023-05-14T04:59:51.362Z,8.00
2023-05-14T05:02:18.582Z,6.90
2023-05-14T05:04:47.352Z,8.85
2023-05-14T05:07:14.849Z,8.00
2023-05-14T05:09:43.324Z,7.83
2023-05-14T05:12:10.747Z,7.35
2023-05-14T05:14:37.674Z,8.98
2023-05-14T05:17:05.164Z,8.88
2023-05-14T05:19:42.583Z,8.00
2023-05-14T05:22:10.827Z,11.70
2023-05-14T05:24:37.876Z,11.55
2023-05-14T05:27:05.703Z,11.88
2023-05-14T05:29:32.802Z,10.70
2023-05-14T05:32:00.245Z,13.05
2023-05-14T05:34:27.552Z,10.40
2023-05-14T05:36:54.766Z,10.70
2023-05-14T05:39:21.661Z,9.20
2023-05-14T05:41:48.950Z,9.52
2023-05-14T05:44:15.883Z,8.57
2023-05-14T05:46:43.199Z,7.27
2023-05-14T05:49:10.687Z,8.15
2023-05-14T05:51:37.935Z,10.15
2023-05-14T05:54:04.845Z,9.00
2023-05-14T05:56:32.164Z,8.00
2023-05-14T05:58:59.015Z,7.70
2023-05-14T06:01:27.044Z,9.07
2023-05-14T06:03:54.018Z,8.23
2023-05-14T06:06:22.051Z,8.07
2023-05-14T06:08:49.249Z,9.35
2023-05-14T06:11:17.177Z,7.97
2023-05-14T06:13:44.086Z,8.80
2023-05-14T06:16:11.390Z,9.60
2023-05-14T06:18:38.415Z,8.25
2023-05-14T06:21:05.750Z,9.27
2023-05-14T06:23:32.661Z,7.80
2023-05-14T06:25:59.845Z,7.55
2023-05-14T06:28:26.819Z,7.90
2023-05-14T06:30:54.285Z,9.02
2023-05-14T06:33:24.129Z,7.90
2023-05-14T06:35:51.349Z,7.40
2023-05-14T06:38:18.311Z,8.80
2023-05-14T06:40:45.708Z,7.32
2023-05-14T06:43:12.578Z,8.40
2023-05-14T06:45:39.975Z,8.00
2023-05-14T06:48:07.106Z,8.30
2023-05-14T06:50:34.548Z,7.95
2023-05-14T06:53:01.489Z,7.72
2023-05-14T06:55:28.923Z,6.80
2023-05-14T06:57:55.869Z,8.40
2023-05-14T07:00:23.479Z,7.17
2023-05-14T07:02:50.617Z,7.90
2023-05-14T07:05:17.981Z,7.95
2023-05-14T07:07:45.289Z,7.05
2023-05-14T07:10:12.848Z,8.60
2023-05-14T07:12:39.702Z,7.77
2023-05-14T07:15:07.847Z,7.28
2023-05-14T07:17:34.902Z,6.72
2023-05-14T07:20:02.149Z,7.70
2023-05-14T07:22:29.104Z,7.75
2023-05-14T07:24:56.363Z,8.40
2023-05-14T07:27:23.216Z,9.02
2023-05-14T07:29:51.077Z,8.43
2023-05-14T07:32:17.944Z,7.43
2023-05-14T07:34:45.213Z,7.40
2023-05-14T07:37:12.138Z,7.13
2023-05-14T07:39:39.396Z,7.88
2023-05-14T07:42:06.404Z,7.30
2023-05-14T07:44:33.610Z,6.72
2023-05-14T07:47:00.616Z,6.93
2023-05-14T07:49:27.967Z,7.00
2023-05-14T07:51:54.937Z,6.50
2023-05-14T07:54:22.210Z,6.10
2023-05-14T07:56:49.090Z,6.18
2023-05-14T07:59:16.437Z,6.97
2023-05-14T08:01:43.466Z,6.73
2023-05-14T08:04:15.461Z,6.65
2023-05-14T08:06:42.550Z,6.10
2023-05-14T08:09:09.906Z,6.18
2023-05-14T08:11:36.887Z,6.05
2023-05-14T08:14:04.106Z,6.47
2023-05-14T08:16:31.080Z,6.30
2023-05-14T08:18:58.412Z,6.18
2023-05-14T08:21:25.346Z,6.70
2023-05-14T08:23:52.580Z,6.40
2023-05-14T08:26:19.485Z,7.00
2023-05-14T08:28:46.677Z,6.55
2023-05-14T08:31:14.877Z,6.75
2023-05-14T08:33:42.120Z,6.97
2023-05-14T08:36:09.226Z,7.20
2023-05-14T08:38:36.517Z,7.03
2023-05-14T08:41:06.398Z,6.50
2023-05-14T08:43:53.084Z,7.28
2023-05-14T08:46:23.462Z,6.78
2023-05-14T08:49:04.385Z,7.80
2023-05-14T08:51:31.790Z,7.63
2023-05-14T08:54:00.545Z,8.20
2023-05-14T08:56:27.814Z,7.82
2023-05-14T08:58:54.967Z,7.53
2023-05-14T09:01:22.273Z,6.82
2023-05-14T09:03:50.777Z,7.50
2023-05-14T09:06:18.871Z,8.25
2023-05-14T09:08:46.565Z,7.57
2023-05-14T09:11:13.424Z,7.75
2023-05-14T09:13:41.236Z,7.97
2023-05-14T09:16:08.152Z,8.80
2023-05-14T09:18:36.631Z,8.80
2023-05-14T09:21:03.853Z,8.65
2023-05-14T09:23:33.890Z,9.55
2023-05-14T09:26:04.990Z,9.60
2023-05-14T09:28:32.280Z,9.90
2023-05-14T09:30:59.409Z,9.75
2023-05-14T09:33:29.906Z,11.47
2023-05-14T09:36:01.430Z,10.32
2023-05-14T09:38:32.665Z,9.98
2023-05-14T09:41:00.892Z,9.43
2023-05-14T09:43:28.529Z,9.82
2023-05-14T09:45:55.636Z,9.53
2023-05-14T09:48:23.218Z,10.05
2023-05-14T09:50:50.118Z,10.48
2023-05-14T09:53:17.973Z,9.85
2023-05-14T09:55:46.255Z,8.52
2023-05-14T09:58:16.341Z,7.93
2023-05-14T10:00:47.046Z,7.60
2023-05-14T10:03:17.930Z,7.55
2023-05-14T10:05:49.407Z,8.32
2023-05-14T10:08:24.591Z,7.72
2023-05-14T10:10:53.831Z,8.80
2023-05-14T10:13:24.075Z,9.88
2023-05-14T10:16:09.094Z,8.02
2023-05-14T10:18:43.048Z,8.05
2023-05-14T10:21:11.563Z,7.30
2023-05-14T10:23:39.325Z,8.13
2023-05-14T10:26:06.863Z,8.00
2023-05-14T10:28:34.493Z,8.15
2023-05-14T10:31:01.592Z,7.07
2023-05-14T10:33:29.094Z,7.93
2023-05-14T10:36:07.098Z,7.07
2023-05-14T10:38:38.445Z,7.25
2023-05-14T10:41:06.231Z,7.70
2023-05-14T10:43:41.072Z,8.80
2023-05-14T10:46:09.722Z,7.82
2023-05-14T10:48:37.944Z,7.97
2023-05-14T10:51:07.765Z,7.78
2023-05-14T10:53:39.296Z,7.10
2023-05-14T10:56:11.908Z,7.10
2023-05-14T10:58:41.974Z,7.57
2023-05-14T11:01:11.090Z,8.03
2023-05-14T11:03:46.777Z,7.00
2023-05-14T11:06:16.050Z,6.30
2023-05-14T11:08:44.140Z,6.65
2023-05-14T11:11:11.212Z,6.75
2023-05-14T11:13:38.650Z,8.77
2023-05-14T11:18:42.018Z,7.20
2023-05-14T11:21:09.167Z,7.03
2023-05-14T11:23:36.413Z,6.53
2023-05-14T11:26:03.932Z,7.23
2023-05-14T11:28:31.275Z,7.00
2023-05-14T11:30:58.212Z,7.00
2023-05-14T11:33:28.254Z,6.60
2023-05-14T11:35:55.134Z,6.78
2023-05-14T11:38:22.901Z,5.87
2023-05-14T11:40:54.230Z,6.53
2023-05-14T11:43:25.105Z,6.18
2023-05-14T11:45:53.768Z,6.72
2023-05-14T11:48:22.279Z,6.03
2023-05-14T11:50:51.256Z,7.30
2023-05-14T11:53:31.169Z,6.63
2023-05-14T11:55:58.549Z,6.88
2023-05-14T11:58:26.364Z,5.60
2023-05-14T12:00:55.741Z,5.88
2023-05-14T12:03:26.511Z,4.80
2023-05-14T12:05:58.037Z,5.07
2023-05-14T12:08:30.563Z,4.80
2023-05-14T12:11:01.801Z,4.28
2023-05-14T12:13:32.984Z,4.43
2023-05-14T12:16:02.486Z,4.17
2023-05-14T12:18:32.062Z,4.07
2023-05-14T12:21:04.135Z,3.83
2023-05-14T12:23:32.293Z,4.00
2023-05-14T12:26:07.126Z,3.60
2023-05-14T12:28:38.050Z,3.60
2023-05-14T12:31:05.892Z,3.80
2023-05-14T12:33:33.132Z,4.00
2023-05-14T12:36:20.492Z,4.25
2023-05-14T12:38:58.648Z,4.47
2023-05-14T12:41:25.700Z,4.00
2023-05-14T12:43:52.986Z,4.22
2023-05-14T12:46:20.192Z,4.03
2023-05-14T12:48:47.594Z,3.90
2023-05-14T12:51:14.921Z,3.95
2023-05-14T12:53:42.175Z,3.60
2023-05-14T12:56:09.267Z,3.63
2023-05-14T12:58:37.141Z,3.67
2023-05-14T13:01:05.462Z,3.83
2023-05-14T13:03:32.925Z,3.72
2023-05-14T13:05:59.835Z,3.77
2023-05-14T13:08:27.189Z,4.00
2023-05-14T13:10:54.694Z,4.38
2023-05-14T13:13:23.043Z,4.10
2023-05-14T13:15:50.100Z,3.85
2023-05-14T13:18:18.280Z,3.83
2023-05-14T13:20:47.611Z,4.18
2023-05-14T13:23:15.128Z,3.75
2023-05-14T13:25:42.074Z,3.97
2023-05-14T13:28:09.968Z,3.90
2023-05-14T13:30:36.886Z,3.60
2023-05-14T13:33:04.397Z,3.88
2023-05-14T13:35:31.764Z,3.78
2023-05-14T13:37:58.974Z,3.92
2023-05-14T13:40:25.903Z,3.50
2023-05-14T13:42:53.254Z,4.03
2023-05-14T13:45:20.192Z,4.22
2023-05-14T13:47:48.783Z,4.20
2023-05-14T13:50:16.586Z,3.55
2023-05-14T13:52:43.764Z,3.85
2023-05-14T13:55:10.765Z,4.10
2023-05-14T13:57:39.946Z,4.00
2023-05-14T14:00:08.224Z,4.28
2023-05-14T14:02:35.430Z,4.45
2023-05-14T14:05:02.475Z,4.45
2023-05-14T14:07:29.766Z,4.20
2023-05-14T14:09:56.641Z,3.20
2023-05-14T14:12:24.180Z,2.47
2023-05-14T14:14:51.241Z,2.10
2023-05-14T14:17:18.531Z,1.67
2023-05-14T14:19:45.426Z,1.50
2023-05-14T14:22:14.237Z,1.30
2023-05-14T14:24:41.094Z,1.58
2023-05-14T14:27:08.330Z,1.40
2023-05-14T14:29:36.826Z,1.65
2023-05-14T14:32:04.673Z,1.30
2023-05-14T14:34:31.615Z,1.98
2023-05-14T14:36:58.807Z,1.60
2023-05-14T14:39:26.700Z,1.75
2023-05-14T14:41:53.937Z,1.80
2023-05-14T14:44:20.980Z,1.60
2023-05-14T14:46:48.251Z,1.77
2023-05-14T14:49:15.538Z,2.10
2023-05-14T14:51:43.057Z,2.08
2023-05-14T14:54:09.929Z,1.85
2023-05-14T14:56:37.318Z,1.80
2023-05-14T14:59:04.240Z,1.92
2023-05-14T15:01:31.692Z,1.95
2023-05-14T15:03:58.674Z,1.90
2023-05-14T15:06:25.911Z,1.98
2023-05-14T15:08:52.748Z,1.90
2023-05-14T15:11:20.117Z,1.90
2023-05-14T15:13:46.989Z,1.95
2023-05-14T15:16:14.646Z,2.00
2023-05-14T15:18:41.609Z,2.00
2023-05-14T15:21:08.882Z,1.80
2023-05-14T15:23:35.857Z,1.60
2023-05-14T15:26:03.065Z,1.92
2023-05-14T15:28:29.942Z,1.63
2023-05-14T15:30:57.196Z,1.50
2023-05-14T15:33:24.067Z,1.70
2023-05-14T15:35:51.499Z,1.60
2023-05-14T15:38:18.401Z,2.20
2023-05-14T15:40:46.058Z,2.30
2023-05-14T15:43:13.025Z,2.47
2023-05-14T15:45:40.230Z,2.00
2023-05-14T15:48:07.171Z,2.30
2023-05-14T15:50:34.415Z,2.13
2023-05-14T15:53:01.323Z,2.22
2023-05-14T15:55:28.980Z,2.33
2023-05-14T15:57:56.061Z,4.20
2023-05-14T16:00:25.173Z,7.22
2023-05-14T16:02:52.863Z,3.30
2023-05-14T16:05:20.193Z,2.40
2023-05-14T16:07:47.320Z,2.30
2023-05-14T16:10:14.569Z,2.40
2023-05-14T16:12:41.478Z,2.08
2023-05-14T16:15:09.231Z,3.47
2023-05-14T16:17:36.359Z,3.78
2023-05-14T16:20:05.113Z,3.90
2023-05-14T16:22:36.329Z,3.97
2023-05-14T16:25:04.975Z,5.05
2023-05-14T16:27:32.033Z,4.32
2023-05-14T16:29:59.332Z,3.67
2023-05-14T16:32:26.279Z,4.50
2023-05-14T16:34:53.564Z,3.10
2023-05-14T16:37:20.808Z,2.20
2023-05-14T16:39:48.863Z,3.30
2023-05-14T16:42:16.102Z,2.72
2023-05-14T16:44:43.280Z,2.40
2023-05-14T16:47:10.626Z,2.03
2023-05-14T16:49:37.941Z,2.42
2023-05-14T16:52:05.253Z,2.28
2023-05-14T16:54:32.531Z,2.15
2023-05-14T16:56:59.794Z,1.88
2023-05-14T16:59:26.984Z,3.00
2023-05-14T17:01:54.356Z,2.78
2023-05-14T17:04:21.716Z,2.20
2023-05-14T17:06:48.678Z,2.25
2023-05-14T17:09:17.013Z,2.13
2023-05-14T17:11:43.998Z,2.63
2023-05-14T17:14:10.733Z,3.38
2023-05-14T17:16:39.156Z,2.45
2023-05-14T17:19:06.152Z,3.00
2023-05-14T17:21:33.646Z,3.20
2023-05-14T17:24:00.662Z,3.60
2023-05-14T17:26:28.334Z,2.95
2023-05-14T17:28:55.217Z,2.50
2023-05-14T17:31:23.447Z,2.50
2023-05-14T17:33:50.599Z,3.10
2023-05-14T17:36:17.860Z,3.40
2023-05-14T17:38:44.757Z,3.33
2023-05-14T17:41:12.045Z,3.28
2023-05-14T17:43:38.992Z,2.65
2023-05-14T17:46:07.022Z,3.20
2023-05-14T17:48:33.956Z,3.40
2023-05-14T17:51:01.309Z,2.80
2023-05-14T17:53:28.273Z,2.30
2023-05-14T17:55:55.570Z,2.55
2023-05-14T17:58:22.524Z,2.30
2023-05-14T18:00:49.822Z,1.93
2023-05-14T18:03:17.684Z,2.10
2023-05-14T18:05:45.314Z,2.40
2023-05-14T18:08:12.337Z,2.20
2023-05-14T18:10:39.553Z,2.20
2023-05-14T18:13:06.447Z,2.10
2023-05-14T18:15:33.864Z,3.00
2023-05-14T18:18:01.087Z,3.17
2023-05-14T18:20:28.904Z,4.68
2023-05-14T18:22:55.769Z,3.55
2023-05-14T18:25:23.266Z,2.33
2023-05-14T18:27:50.420Z,2.30
2023-05-14T18:30:17.862Z,2.20
2023-05-14T18:32:45.241Z,2.22
2023-05-14T18:35:13.300Z,2.47
2023-05-14T18:37:41.150Z,2.60
2023-05-14T18:40:09.199Z,2.67
2023-05-14T18:42:36.252Z,2.00
2023-05-14T18:45:04.362Z,2.67
2023-05-14T18:47:32.339Z,2.35
2023-05-14T18:50:00.616Z,2.50
2023-05-14T18:52:28.289Z,2.83
2023-05-14T18:54:55.555Z,2.85
2023-05-14T18:57:22.621Z,2.72
2023-05-14T18:59:50.466Z,2.20
2023-05-14T19:02:17.382Z,2.77
2023-05-14T19:04:52.224Z,2.30
2023-05-14T19:07:20.815Z,1.67
2023-05-14T19:09:48.392Z,1.60
2023-05-14T19:12:15.306Z,1.42
2023-05-14T19:14:42.586Z,1.70
2023-05-14T19:17:09.828Z,1.55
2023-05-14T19:19:37.991Z,1.50
2023-05-14T19:22:05.688Z,2.15
2023-05-14T19:24:33.032Z,1.77
2023-05-14T19:27:00.559Z,1.50
2023-05-14T19:29:27.838Z,1.90
2023-05-14T19:31:54.773Z,2.00
2023-05-14T19:34:22.096Z,1.98
2023-05-14T19:36:49.033Z,1.88
2023-05-14T19:39:16.306Z,1.80
2023-05-14T19:41:43.218Z,2.20
2023-05-14T19:44:10.477Z,1.80
2023-05-14T19:46:37.496Z,1.90
2023-05-14T19:49:04.754Z,1.85
2023-05-14T19:51:31.698Z,1.87
2023-05-14T19:53:58.962Z,2.00
2023-05-14T19:56:27.283Z,2.10
2023-05-14T19:58:54.743Z,3.05
2023-05-14T20:01:21.727Z,4.22
2023-05-14T20:03:49.634Z,3.57
2023-05-14T20:06:17.626Z,2.63
2023-05-14T20:08:47.829Z,2.70
2023-05-14T20:11:15.873Z,2.30
2023-05-14T20:13:43.106Z,2.47
2023-05-14T20:16:10.041Z,2.03
2023-05-14T20:18:40.502Z,2.00
2023-05-14T20:21:07.981Z,1.80
2023-05-14T20:23:35.191Z,1.80
2023-05-14T20:26:02.607Z,2.13
2023-05-14T20:28:30.856Z,2.40
2023-05-14T20:30:59.161Z,2.20
2023-05-14T20:33:27.292Z,2.00
2023-05-14T20:35:54.202Z,2.10
2023-05-14T20:38:21.899Z,2.30
2023-05-14T20:40:48.781Z,2.37
2023-05-14T20:43:16.331Z,2.88
2023-05-14T20:45:43.204Z,2.38
2023-05-14T20:48:12.369Z,2.20
2023-05-14T20:50:39.343Z,2.50
2023-05-14T20:53:06.562Z,2.30
2023-05-14T20:55:33.501Z,2.55
2023-05-14T20:58:00.863Z,2.38
2023-05-14T21:00:27.778Z,2.40
2023-05-14T21:02:55.214Z,3.20
2023-05-14T21:05:22.264Z,3.47
2023-05-14T21:07:49.539Z,6.45
2023-05-14T21:10:17.364Z,5.20
2023-05-14T21:12:45.031Z,3.90
2023-05-14T21:15:12.349Z,3.33
2023-05-14T21:17:39.670Z,2.73
2023-05-14T21:20:07.169Z,4.15
2023-05-14T21:22:34.518Z,3.60
2023-05-14T21:25:01.404Z,4.10
2023-05-14T21:27:28.738Z,3.58
2023-05-14T21:29:55.625Z,2.83
2023-05-14T21:32:24.077Z,2.80
2023-05-14T21:34:51.057Z,3.22
2023-05-14T21:37:18.318Z,2.88
2023-05-14T21:39:45.200Z,3.00
2023-05-14T21:42:12.807Z,3.73
2023-05-14T21:44:39.822Z,3.10
2023-05-14T21:47:07.227Z,2.83
2023-05-14T21:49:34.136Z,2.67
2023-05-14T21:52:01.408Z,2.75
2023-05-14T21:54:28.326Z,2.70
2023-05-14T21:56:55.995Z,2.67
2023-05-14T21:59:22.943Z,2.58
2023-05-14T22:02:06.181Z,2.53
2023-05-14T22:04:35.444Z,2.40
2023-05-14T22:07:02.922Z,2.43
2023-05-14T22:09:30.606Z,2.10
2023-05-14T22:11:58.629Z,2.40
2023-05-14T22:14:27.444Z,2.45
2023-05-14T22:16:54.892Z,2.70
2023-05-14T22:19:22.566Z,4.60
2023-05-14T22:21:50.114Z,4.80
2023-05-14T22:24:17.229Z,4.75
2023-05-14T22:26:44.629Z,4.78
2023-05-14T22:29:11.517Z,5.32
2023-05-14T22:31:38.868Z,3.90
2023-05-14T22:34:05.853Z,5.38
2023-05-14T22:36:33.057Z,6.88
2023-05-14T22:39:00.138Z,8.07
2023-05-14T22:41:27.337Z,5.38
2023-05-14T22:43:54.245Z,6.57
2023-05-14T22:46:21.612Z,4.85
2023-05-14T22:48:49.468Z,4.28
2023-05-14T22:51:16.815Z,5.15
2023-05-14T22:53:43.828Z,4.70
2023-05-14T22:56:11.164Z,4.83
2023-05-14T22:58:38.063Z,4.70
2023-05-14T23:01:05.300Z,4.00
2023-05-14T23:03:32.265Z,4.13
2023-05-14T23:05:59.506Z,4.47
2023-05-14T23:08:26.418Z,4.97
2023-05-14T23:10:54.022Z,7.75
2023-05-14T23:13:21.313Z,6.10
2023-05-14T23:15:49.016Z,7.55
2023-05-14T23:18:16.070Z,9.50
2023-05-14T23:20:43.964Z,8.67
2023-05-14T23:23:11.351Z,6.38
2023-05-14T23:25:38.635Z,5.35
2023-05-14T23:28:06.228Z,5.72
2023-05-14T23:30:33.482Z,5.18
2023-05-14T23:33:00.433Z,5.33
2023-05-14T23:35:27.847Z,5.65
2023-05-14T23:37:55.483Z,6.53
2023-05-14T23:40:22.742Z,7.43
2023-05-14T23:42:49.695Z,7.10
2023-05-14T23:45:17.110Z,8.63
2023-05-14T23:47:44.201Z,8.50
2023-05-14T23:50:11.507Z,7.00
2023-05-14T23:52:38.481Z,5.53
2023-05-14T23:55:06.617Z,5.47
2023-05-14T23:57:33.676Z,4.80
